KAIK/AIK METAR and TAF weather

Enter ICAO airport designator
Station Type Date Time Source
KAIK METAR 2019/12/06 13:55 UTC NOAA

KAIK 061355Z AUTO 13003KT 10SM CLR 07/02 A3026 RMK AO2


Station Type Date Time Source
KAIK Decoded METAR 2019/12/06 13:55 UTC NOAA

Station name not available
Dec 06, 2019 - 08:55 AM EST / 2019.12.06 1355 UTC
Wind: from the SE (130 degrees) at 3 MPH (3 KT):0
Visibility: 10 mile(s):0
Sky conditions: clear
Temperature: 44 F (7 C)
Dew Point: 35 F (2 C)
Relative Humidity: 70%
Pressure (altimeter): 30.26 in. Hg (1024 hPa)
ob: KAIK 061355Z AUTO 13003KT 10SM CLR 07/02 A3026 RMK AO2
cycle: 14

Station Type Date Time Source
KAIK TAF UTC NOAA

Error!

Example: see airport list